createdAt,value
2022-08-05T00:01:21.014Z,10.55
2022-08-05T00:05:00.086Z,14.05
2022-08-05T00:08:35.083Z,20.17
2022-08-05T00:11:35.037Z,20.85
2022-08-05T00:14:46.857Z,16.63
2022-08-05T00:18:06.055Z,15.95
2022-08-05T00:21:20.792Z,14.85
2022-08-05T00:24:24.536Z,16.23
2022-08-05T00:27:40.454Z,12.02
2022-08-05T00:31:16.062Z,19.48
2022-08-05T00:35:03.564Z,13.65
2022-08-05T00:38:14.953Z,16.02
2022-08-05T00:41:51.675Z,13.57
2022-08-05T00:45:11.690Z,18.42
2022-08-05T00:48:27.519Z,19.17
2022-08-05T00:51:52.029Z,16.10
2022-08-05T00:55:02.893Z,16.33
2022-08-05T00:58:06.441Z,13.65
2022-08-05T01:01:15.874Z,13.45
2022-08-05T01:04:58.162Z,16.13
2022-08-05T01:08:47.419Z,13.85
2022-08-05T01:12:18.418Z,14.75
2022-08-05T01:15:48.130Z,11.93
2022-08-05T01:19:06.768Z,13.05
2022-08-05T01:22:42.228Z,10.25
2022-08-05T01:29:40.281Z,8.90
2022-08-05T01:32:49.705Z,10.18
2022-08-05T01:36:28.058Z,10.73
2022-08-05T01:39:59.196Z,12.85
2022-08-05T01:43:34.743Z,5.65
2022-08-05T01:46:49.394Z,9.88
2022-08-05T01:50:30.670Z,8.82
2022-08-05T01:58:29.711Z,9.45
2022-08-05T02:01:14.658Z,11.65
2022-08-05T02:04:50.617Z,15.30
2022-08-05T02:12:55.491Z,9.85
2022-08-05T02:20:11.101Z,10.48
2022-08-05T02:27:59.538Z,3.58
2022-08-05T02:31:52.972Z,11.50
2022-08-05T02:35:27.618Z,6.28
2022-08-05T02:38:52.945Z,5.45
2022-08-05T02:46:58.681Z,3.28
2022-08-05T02:50:53.492Z,6.70
2022-08-05T02:54:03.235Z,7.97
2022-08-05T02:58:11.546Z,10.30
2022-08-05T03:00:55.712Z,4.40
2022-08-05T03:05:10.400Z,8.27
2022-08-05T03:08:26.888Z,7.05
2022-08-05T03:11:54.625Z,7.03
2022-08-05T03:15:12.642Z,11.05
2022-08-05T03:18:46.766Z,3.75
2022-08-05T03:22:52.560Z,8.73
2022-08-05T03:26:04.288Z,8.40
2022-08-05T03:29:19.157Z,6.28
2022-08-05T03:32:30.913Z,12.73
2022-08-05T03:35:41.061Z,5.85
2022-08-05T03:38:44.541Z,3.67
2022-08-05T03:41:59.811Z,6.47
2022-08-05T03:45:21.647Z,5.38
2022-08-05T03:48:25.725Z,4.93
2022-08-05T03:52:34.937Z,8.05
2022-08-05T03:55:52.812Z,5.32
2022-08-05T03:58:29.177Z,5.78
2022-08-05T04:01:33.978Z,9.30
2022-08-05T04:04:45.654Z,4.50
2022-08-05T04:07:58.195Z,4.22
2022-08-05T04:11:02.443Z,6.15
2022-08-05T04:14:07.286Z,12.02
2022-08-05T04:17:11.376Z,5.80
2022-08-05T04:20:19.866Z,5.00
2022-08-05T04:24:05.642Z,9.68
2022-08-05T04:26:46.417Z,4.18
2022-08-05T04:29:50.648Z,3.08
2022-08-05T04:32:53.411Z,10.20
2022-08-05T04:36:11.128Z,6.20
2022-08-05T04:39:18.709Z,5.15
2022-08-05T04:42:21.514Z,4.15
2022-08-05T04:45:31.323Z,6.15
2022-08-05T04:48:51.760Z,2.83
2022-08-05T04:52:15.097Z,5.43
2022-08-05T04:55:17.718Z,2.53
2022-08-05T04:58:40.291Z,5.75
2022-08-05T05:02:07.456Z,3.78
2022-08-05T05:05:16.744Z,3.47
2022-08-05T05:08:30.589Z,4.50
2022-08-05T05:11:52.819Z,4.07
2022-08-05T05:14:55.921Z,5.80
2022-08-05T05:18:00.047Z,6.40
2022-08-05T05:21:04.166Z,5.72
2022-08-05T05:24:09.158Z,7.80
2022-08-05T05:27:12.027Z,4.63
2022-08-05T05:30:29.645Z,8.80
2022-08-05T05:34:34.605Z,4.63
2022-08-05T05:38:01.432Z,6.82
2022-08-05T05:41:04.878Z,4.68
2022-08-05T05:44:15.722Z,4.35
2022-08-05T05:48:06.113Z,4.97
2022-08-05T05:50:56.020Z,5.95
2022-08-05T05:54:00.192Z,4.03
2022-08-05T05:57:03.050Z,3.10
2022-08-05T06:00:10.175Z,4.90
2022-08-05T06:03:39.845Z,5.32
2022-08-05T06:06:47.781Z,3.15
2022-08-05T06:10:01.408Z,6.13
2022-08-05T06:13:08.647Z,2.80
2022-08-05T06:16:29.649Z,2.72
2022-08-05T06:19:35.701Z,3.95
2022-08-05T06:22:38.482Z,3.25
2022-08-05T06:26:13.079Z,11.10
2022-08-05T06:29:42.982Z,5.50
2022-08-05T06:32:31.924Z,2.35
2022-08-05T06:36:06.954Z,5.38
2022-08-05T06:38:57.295Z,2.05
2022-08-05T06:42:04.111Z,4.68
2022-08-05T06:45:08.588Z,6.63
2022-08-05T06:48:53.098Z,4.05
2022-08-05T06:51:34.556Z,9.73
2022-08-05T06:54:38.593Z,2.17
2022-08-05T06:57:57.760Z,2.28
2022-08-05T07:05:57.045Z,2.92
2022-08-05T07:08:59.875Z,6.88
2022-08-05T07:12:07.411Z,7.75
2022-08-05T07:15:34.399Z,3.58
2022-08-05T07:18:54.356Z,2.35
2022-08-05T07:22:01.482Z,3.63
2022-08-05T07:25:24.011Z,5.07
2022-08-05T07:28:28.730Z,4.38
2022-08-05T07:31:40.938Z,2.65
2022-08-05T07:34:57.778Z,7.28
2022-08-05T07:38:01.254Z,3.88
2022-08-05T07:42:08.122Z,2.92
2022-08-05T07:44:27.688Z,3.85
2022-08-05T07:47:42.049Z,5.03
2022-08-05T07:50:45.229Z,7.03
2022-08-05T07:58:57.850Z,3.45
2022-08-05T08:01:57.712Z,3.58
2022-08-05T08:05:02.035Z,1.48
2022-08-05T08:08:06.716Z,9.50
2022-08-05T08:11:16.018Z,6.47
2022-08-05T08:14:20.463Z,3.97
2022-08-05T08:17:23.333Z,1.92
2022-08-05T08:20:44.198Z,5.18
2022-08-05T08:24:02.892Z,4.03
2022-08-05T08:27:07.678Z,8.02
2022-08-05T08:30:29.394Z,5.53
2022-08-05T08:33:38.040Z,3.58
2022-08-05T08:36:47.626Z,7.22
2022-08-05T08:39:55.212Z,2.40
2022-08-05T08:42:58.416Z,7.00
2022-08-05T08:46:21.093Z,4.38
2022-08-05T08:50:13.020Z,4.72
2022-08-05T08:52:52.888Z,2.95
2022-08-05T08:56:05.297Z,8.35
2022-08-05T08:59:14.729Z,3.88
2022-08-05T09:02:26.959Z,3.90
2022-08-05T09:05:38.586Z,5.75
2022-08-05T09:08:54.658Z,3.53
2022-08-05T09:12:03.390Z,2.58
2022-08-05T09:15:12.162Z,6.97
2022-08-05T09:18:17.814Z,3.45
2022-08-05T09:22:23.341Z,1.90
2022-08-05T09:24:57.477Z,2.03
2022-08-05T09:28:09.992Z,2.83
2022-08-05T09:31:43.490Z,2.97
2022-08-05T09:34:52.892Z,3.72
2022-08-05T09:38:11.947Z,1.92
2022-08-05T09:41:20.250Z,7.38
2022-08-05T09:44:37.136Z,4.80
2022-08-05T09:47:55.496Z,6.47
2022-08-05T09:51:00.194Z,2.58
2022-08-05T09:54:09.440Z,5.05
2022-08-05T09:57:29.852Z,2.08
2022-08-05T10:01:15.120Z,2.90
2022-08-05T10:05:17.677Z,2.35
2022-08-05T10:08:36.660Z,3.05
2022-08-05T10:11:40.666Z,5.30
2022-08-05T10:14:45.841Z,3.85
2022-08-05T10:18:07.217Z,4.28
2022-08-05T10:21:15.769Z,2.65
2022-08-05T10:24:19.483Z,2.83
2022-08-05T10:28:09.058Z,4.97
2022-08-05T10:36:00.000Z,2.45
2022-08-05T10:39:10.349Z,2.85
2022-08-05T10:42:22.717Z,4.90
2022-08-05T10:45:40.071Z,3.38
2022-08-05T10:48:57.356Z,7.72
2022-08-05T10:52:10.240Z,3.17
2022-08-05T10:55:16.038Z,2.65
2022-08-05T10:58:21.275Z,3.30
2022-08-05T11:01:54.619Z,7.18
2022-08-05T11:04:55.667Z,5.60
2022-08-05T11:08:02.463Z,6.45
2022-08-05T11:11:44.340Z,1.73
2022-08-05T11:15:19.103Z,2.83
2022-08-05T11:18:32.639Z,2.50
2022-08-05T11:21:40.967Z,4.28
2022-08-05T11:25:16.907Z,3.00
2022-08-05T11:28:48.688Z,3.03
2022-08-05T11:31:57.072Z,2.60
2022-08-05T11:35:03.076Z,2.72
2022-08-05T11:38:30.623Z,1.88
2022-08-05T11:41:54.778Z,4.57
2022-08-05T11:45:03.000Z,4.95
2022-08-05T11:48:08.719Z,2.67
2022-08-05T11:51:43.696Z,8.55
2022-08-05T11:54:40.714Z,5.75
2022-08-05T11:58:09.967Z,2.42
2022-08-05T12:01:11.119Z,8.07
2022-08-05T12:04:13.769Z,1.92
2022-08-05T12:07:17.024Z,2.65
2022-08-05T12:10:45.826Z,1.75
2022-08-05T12:13:55.845Z,2.03
2022-08-05T12:18:00.683Z,1.60
2022-08-05T12:20:33.109Z,3.30
2022-08-05T12:23:36.510Z,4.20
2022-08-05T12:26:46.843Z,2.53
2022-08-05T12:30:03.332Z,0.70
2022-08-05T12:33:27.443Z,2.38
2022-08-05T12:36:48.971Z,1.42
2022-08-05T12:39:52.253Z,1.13
2022-08-05T12:42:59.786Z,2.90
2022-08-05T12:46:03.616Z,1.63
2022-08-05T12:49:13.517Z,1.95
2022-08-05T12:52:25.303Z,2.40
2022-08-05T12:55:32.768Z,1.88
2022-08-05T12:58:39.161Z,3.47
2022-08-05T13:02:27.380Z,1.38
2022-08-05T13:05:37.739Z,1.20
2022-08-05T13:08:40.832Z,1.20
2022-08-05T13:12:17.374Z,4.55
2022-08-05T13:15:24.377Z,1.55
2022-08-05T13:18:41.384Z,2.67
2022-08-05T13:21:55.934Z,5.05
2022-08-05T13:25:05.880Z,0.90
2022-08-05T13:28:12.422Z,1.20
2022-08-05T13:31:17.097Z,2.17
2022-08-05T13:34:37.906Z,0.80
2022-08-05T13:37:46.516Z,2.15
2022-08-05T13:40:59.910Z,1.25
2022-08-05T13:44:03.592Z,1.67
2022-08-05T13:47:09.171Z,1.95
2022-08-05T13:50:16.632Z,1.58
2022-08-05T13:53:21.117Z,1.85
2022-08-05T13:56:23.894Z,2.35
2022-08-05T13:59:27.517Z,3.38
2022-08-05T14:02:33.799Z,3.42
2022-08-05T14:06:04.830Z,2.70
2022-08-05T14:09:01.422Z,2.08
2022-08-05T14:12:18.311Z,0.90
2022-08-05T14:16:05.346Z,4.65
2022-08-05T14:18:51.546Z,5.80
2022-08-05T14:22:09.151Z,1.52
2022-08-05T14:25:21.424Z,2.50
2022-08-05T14:28:26.947Z,3.05
2022-08-05T14:32:03.805Z,4.82
2022-08-05T14:34:53.076Z,4.32
2022-08-05T14:37:57.420Z,2.38
2022-08-05T14:41:07.698Z,7.28
2022-08-05T14:44:20.596Z,3.60
2022-08-05T14:48:02.768Z,7.30
2022-08-05T14:50:47.671Z,1.73
2022-08-05T14:54:26.028Z,2.60
2022-08-05T14:57:16.571Z,3.08
2022-08-05T15:00:21.460Z,1.27
2022-08-05T15:03:33.157Z,1.20
2022-08-05T15:06:36.872Z,3.10
2022-08-05T15:09:52.258Z,1.38
2022-08-05T15:13:03.508Z,2.17
2022-08-05T15:16:07.295Z,4.75
2022-08-05T15:19:14.404Z,2.65
2022-08-05T15:22:26.955Z,6.30
2022-08-05T15:25:51.078Z,3.65
2022-08-05T15:28:56.747Z,2.92
2022-08-05T15:32:03.357Z,6.45
2022-08-05T15:35:10.775Z,4.93
2022-08-05T15:38:35.799Z,2.75
2022-08-05T15:41:56.014Z,1.98
2022-08-05T15:45:02.310Z,12.23
2022-08-05T15:48:05.595Z,3.30
2022-08-05T15:51:10.445Z,3.25
2022-08-05T15:54:15.227Z,6.50
2022-08-05T15:57:18.500Z,3.83
2022-08-05T16:00:26.025Z,5.22
2022-08-05T16:03:48.580Z,4.10
2022-08-05T16:06:53.284Z,2.80
2022-08-05T16:09:55.976Z,4.55
2022-08-05T16:12:58.551Z,2.10
2022-08-05T16:16:03.766Z,1.95
2022-08-05T16:19:06.784Z,3.63
2022-08-05T16:22:13.313Z,1.90
2022-08-05T16:25:18.070Z,7.13
2022-08-05T16:28:20.724Z,3.40
2022-08-05T16:31:28.338Z,0.93
2022-08-05T16:34:51.080Z,5.90
2022-08-05T16:38:15.362Z,2.00
2022-08-05T16:42:12.844Z,1.60
2022-08-05T16:44:39.985Z,4.43
2022-08-05T16:47:53.534Z,0.90
2022-08-05T16:50:59.165Z,2.72
2022-08-05T16:54:17.523Z,3.30
2022-08-05T16:57:39.930Z,2.72
2022-08-05T17:00:48.154Z,2.13
2022-08-05T17:03:54.070Z,2.63
2022-08-05T17:07:00.862Z,2.53
2022-08-05T17:10:04.636Z,3.00
2022-08-05T17:13:16.772Z,1.73
2022-08-05T17:16:33.005Z,1.13
2022-08-05T17:19:37.788Z,0.93
2022-08-05T17:22:40.505Z,2.08
2022-08-05T17:25:43.343Z,1.10
2022-08-05T17:28:47.270Z,1.85
2022-08-05T17:31:58.259Z,5.15
2022-08-05T17:35:03.347Z,1.73
2022-08-05T17:38:07.507Z,1.17
2022-08-05T17:42:16.412Z,3.40
2022-08-05T17:44:34.358Z,1.70
2022-08-05T17:47:37.928Z,1.30
2022-08-05T17:50:43.310Z,0.50
2022-08-05T17:53:45.983Z,0.80
2022-08-05T17:56:57.220Z,1.83
2022-08-05T18:00:03.627Z,3.35
2022-08-05T18:03:08.581Z,1.38
2022-08-05T18:06:15.487Z,2.58
2022-08-05T18:09:18.448Z,0.50
2022-08-05T18:12:24.001Z,1.60
2022-08-05T18:15:27.575Z,0.30
2022-08-05T18:18:39.697Z,2.13
2022-08-05T18:22:09.750Z,3.67
2022-08-05T18:25:10.063Z,1.33
2022-08-05T18:28:21.861Z,2.28
2022-08-05T18:31:24.985Z,1.30
2022-08-05T18:34:40.802Z,1.83
2022-08-05T18:37:45.529Z,8.63
2022-08-05T18:41:57.138Z,1.02
2022-08-05T18:44:13.486Z,1.77
2022-08-05T18:47:38.004Z,1.17
2022-08-05T18:52:02.948Z,0.80
2022-08-05T18:54:22.431Z,2.50
2022-08-05T18:57:25.676Z,9.25
2022-08-05T19:00:28.920Z,3.92
2022-08-05T19:03:53.036Z,1.65
2022-08-05T19:06:54.862Z,1.30
2022-08-05T19:10:01.103Z,2.40
2022-08-05T19:13:04.295Z,5.47
2022-08-05T19:16:25.324Z,1.23
2022-08-05T19:19:31.300Z,1.75
2022-08-05T19:22:34.404Z,1.83
2022-08-05T19:25:44.104Z,0.80
2022-08-05T19:28:47.103Z,1.42
2022-08-05T19:31:51.405Z,2.20
2022-08-05T19:34:54.637Z,4.00
2022-08-05T19:38:04.553Z,0.80
2022-08-05T19:41:12.719Z,0.95
2022-08-05T19:44:15.560Z,2.17
2022-08-05T19:47:18.419Z,1.35
2022-08-05T19:50:21.096Z,2.10
2022-08-05T19:54:04.196Z,0.75
2022-08-05T19:56:50.265Z,0.50
2022-08-05T20:00:01.650Z,0.73
2022-08-05T20:03:14.127Z,1.27
2022-08-05T20:06:29.040Z,1.92
2022-08-05T20:09:54.984Z,0.32
2022-08-05T20:12:56.290Z,1.48
2022-08-05T20:15:59.632Z,0.30
2022-08-05T20:19:02.525Z,0.50
2022-08-05T20:22:05.294Z,3.13
2022-08-05T20:25:08.247Z,0.45
2022-08-05T20:28:14.658Z,0.30
2022-08-05T20:31:17.783Z,1.23
2022-08-05T20:34:24.655Z,0.38
2022-08-05T20:38:06.770Z,1.02
2022-08-05T20:40:50.342Z,0.90
2022-08-05T20:44:00.477Z,0.52
2022-08-05T20:47:07.463Z,0.30
2022-08-05T20:50:11.543Z,1.17
2022-08-05T20:53:16.021Z,4.07
2022-08-05T20:56:42.304Z,0.43
2022-08-05T21:00:19.872Z,1.25
2022-08-05T21:03:09.392Z,4.53
2022-08-05T21:06:28.241Z,2.15
2022-08-05T21:09:33.793Z,1.40
2022-08-05T21:12:39.859Z,1.00
2022-08-05T21:16:03.745Z,2.42
2022-08-05T21:19:06.540Z,0.65
2022-08-05T21:22:10.343Z,2.88
2022-08-05T21:25:14.689Z,0.50
2022-08-05T21:28:18.752Z,2.10
2022-08-05T21:31:28.210Z,1.10
2022-08-05T21:34:43.825Z,3.20
2022-08-05T21:37:59.131Z,2.35
2022-08-05T21:41:01.766Z,0.60
2022-08-05T21:44:06.968Z,0.30
2022-08-05T21:47:32.930Z,3.63
2022-08-05T21:50:34.629Z,4.55
2022-08-05T21:53:40.044Z,1.60
2022-08-05T21:56:44.352Z,1.48
2022-08-05T22:00:05.773Z,2.75
2022-08-05T22:03:16.579Z,2.00
2022-08-05T22:06:35.189Z,0.40
2022-08-05T22:09:46.218Z,2.08
2022-08-05T22:12:50.521Z,2.30
2022-08-05T22:16:01.061Z,0.75
2022-08-05T22:19:15.121Z,1.48
2022-08-05T22:22:55.521Z,4.00
2022-08-05T22:26:15.693Z,2.55
2022-08-05T22:29:18.828Z,0.47
2022-08-05T22:32:32.471Z,1.67
2022-08-05T22:35:48.054Z,0.70
2022-08-05T22:38:53.727Z,4.38
2022-08-05T22:42:09.306Z,2.78
2022-08-05T22:45:15.559Z,0.93
2022-08-05T22:48:22.095Z,0.80
2022-08-05T22:52:05.945Z,1.05
2022-08-05T22:54:54.796Z,0.68
2022-08-05T22:57:57.942Z,0.57
2022-08-05T23:01:02.648Z,1.77
2022-08-05T23:04:05.717Z,4.22
2022-08-05T23:07:12.624Z,2.53
2022-08-05T23:10:16.264Z,3.55
2022-08-05T23:13:23.064Z,3.10
2022-08-05T23:16:39.932Z,1.30
2022-08-05T23:19:50.911Z,1.05
2022-08-05T23:23:03.511Z,4.60
2022-08-05T23:26:08.812Z,0.93
2022-08-05T23:29:15.844Z,2.40
2022-08-05T23:32:22.812Z,0.82
2022-08-05T23:35:28.555Z,3.65
2022-08-05T23:38:39.328Z,1.83
2022-08-05T23:41:48.407Z,3.58
2022-08-05T23:44:54.526Z,3.10
2022-08-05T23:47:59.495Z,6.85
2022-08-05T23:51:07.326Z,1.27
2022-08-05T23:54:12.432Z,0.70
2022-08-05T23:57:15.162Z,1.08
